createdAt,value
2018-09-17T00:01:54.371Z,3.20
2018-09-17T00:05:57.688Z,2.93
2018-09-17T00:10:01.027Z,3.00
2018-09-17T00:14:04.384Z,3.03
2018-09-17T00:18:07.895Z,2.70
2018-09-17T00:22:11.211Z,3.20
2018-09-17T00:26:14.694Z,3.10
2018-09-17T00:30:18.008Z,3.13
2018-09-17T00:34:21.913Z,3.43
2018-09-17T00:38:25.656Z,3.83
2018-09-17T00:42:28.968Z,3.03
2018-09-17T00:46:32.315Z,3.20
2018-09-17T00:50:35.918Z,3.23
2018-09-17T00:54:39.243Z,3.20
2018-09-17T00:58:42.552Z,3.40
2018-09-17T01:02:45.895Z,3.47
2018-09-17T01:06:49.315Z,3.10
2018-09-17T01:10:52.875Z,3.47
2018-09-17T01:14:56.186Z,2.90
2018-09-17T01:18:59.489Z,3.20
2018-09-17T01:23:02.813Z,3.30
2018-09-17T01:27:06.154Z,3.60
2018-09-17T01:31:09.523Z,3.73
2018-09-17T01:35:12.843Z,3.17
2018-09-17T01:39:16.186Z,3.07
2018-09-17T01:43:19.736Z,3.40
2018-09-17T01:47:23.078Z,3.07
2018-09-17T01:51:26.427Z,3.30
2018-09-17T01:55:29.779Z,2.93
2018-09-17T01:59:33.121Z,3.10
2018-09-17T02:03:36.495Z,2.80
2018-09-17T02:07:39.840Z,3.20
2018-09-17T02:11:43.254Z,3.50
2018-09-17T02:15:46.593Z,3.30
2018-09-17T02:19:49.918Z,3.27
2018-09-17T02:23:53.230Z,3.30
2018-09-17T02:27:56.563Z,3.50
2018-09-17T02:31:59.912Z,3.43
2018-09-17T02:36:03.284Z,3.40
2018-09-17T02:40:10.847Z,3.33
2018-09-17T02:44:14.266Z,3.07
2018-09-17T02:48:17.629Z,3.47
2018-09-17T02:52:20.962Z,3.80
2018-09-17T02:56:24.294Z,3.20
2018-09-17T03:00:27.599Z,3.40
2018-09-17T03:04:30.935Z,3.50
2018-09-17T03:08:34.354Z,3.53
2018-09-17T03:12:37.683Z,3.77
2018-09-17T03:16:52.351Z,3.63
2018-09-17T03:20:55.727Z,3.33
2018-09-17T03:24:59.064Z,4.00
2018-09-17T03:29:02.424Z,3.83
2018-09-17T03:33:05.765Z,4.00
2018-09-17T03:37:09.130Z,3.80
2018-09-17T03:41:13.294Z,4.23
2018-09-17T03:45:16.624Z,4.17
2018-09-17T03:49:19.966Z,3.90
2018-09-17T03:53:23.325Z,3.40
2018-09-17T03:57:26.668Z,3.77
2018-09-17T04:01:29.968Z,4.40
2018-09-17T04:05:33.493Z,3.90
2018-09-17T04:09:36.875Z,4.43
2018-09-17T04:13:40.219Z,4.27
2018-09-17T04:17:43.561Z,4.20
2018-09-17T04:21:46.890Z,4.90
2018-09-17T04:25:50.229Z,4.70
2018-09-17T04:29:53.575Z,4.20
2018-09-17T04:33:56.911Z,4.30
2018-09-17T04:38:00.244Z,4.07
2018-09-17T04:42:03.828Z,4.40
2018-09-17T04:46:07.159Z,4.33
2018-09-17T04:50:10.840Z,4.50
2018-09-17T04:54:14.216Z,4.77
2018-09-17T04:58:17.576Z,4.20
2018-09-17T05:02:20.935Z,4.10
2018-09-17T05:06:24.275Z,4.23
2018-09-17T05:10:27.656Z,4.60
2018-09-17T05:14:31.007Z,4.57
2018-09-17T05:18:34.375Z,4.63
2018-09-17T05:22:37.711Z,4.57
2018-09-17T05:26:41.112Z,4.30
2018-09-17T05:30:44.442Z,4.50
2018-09-17T05:34:47.813Z,4.63
2018-09-17T05:38:51.169Z,5.03
2018-09-17T05:42:54.542Z,4.40
2018-09-17T05:46:57.879Z,5.00
2018-09-17T05:51:01.250Z,5.30
2018-09-17T05:55:05.500Z,4.93
2018-09-17T05:59:08.869Z,5.20
2018-09-17T06:03:12.220Z,5.07
2018-09-17T06:07:15.564Z,5.20
2018-09-17T06:11:18.978Z,5.37
2018-09-17T06:15:22.291Z,5.03
2018-09-17T06:19:25.719Z,4.57
2018-09-17T06:23:29.060Z,3.73
2018-09-17T06:27:32.391Z,4.10
2018-09-17T06:31:35.735Z,4.20
2018-09-17T06:35:39.059Z,4.17
2018-09-17T06:39:42.511Z,4.53
2018-09-17T06:43:45.837Z,4.27
2018-09-17T06:47:49.145Z,4.60
2018-09-17T06:51:52.853Z,4.30
2018-09-17T06:55:56.206Z,4.50
2018-09-17T06:59:59.534Z,4.87
2018-09-17T07:04:02.857Z,4.83
2018-09-17T07:08:06.194Z,4.77
2018-09-17T07:12:09.571Z,4.70
2018-09-17T07:16:12.898Z,5.00
2018-09-17T07:20:16.226Z,5.10
2018-09-17T07:24:19.571Z,5.00
2018-09-17T07:28:23.174Z,4.93
2018-09-17T07:32:26.534Z,5.03
2018-09-17T07:36:30.149Z,3.67
2018-09-17T07:40:33.478Z,4.20
2018-09-17T07:44:36.842Z,4.73
2018-09-17T07:48:40.170Z,4.27
2018-09-17T07:52:43.505Z,3.50
2018-09-17T07:56:46.845Z,3.40
2018-09-17T08:00:50.188Z,3.30
2018-09-17T08:04:53.519Z,3.60
2018-09-17T08:08:56.900Z,3.43
2018-09-17T08:13:00.287Z,3.53
2018-09-17T08:17:03.748Z,3.77
2018-09-17T08:21:07.148Z,3.83
2018-09-17T08:25:10.861Z,3.60
2018-09-17T08:29:14.194Z,3.67
2018-09-17T08:33:17.660Z,3.50
2018-09-17T08:37:21.014Z,3.80
2018-09-17T08:41:24.415Z,4.00
2018-09-17T08:45:27.825Z,3.90
2018-09-17T08:49:31.117Z,3.43
2018-09-17T08:53:34.455Z,3.50
2018-09-17T08:57:45.256Z,5.80
2018-09-17T09:01:54.072Z,3.50
2018-09-17T09:06:02.863Z,3.27
2018-09-17T09:10:11.722Z,3.60
2018-09-17T09:14:20.183Z,3.50
2018-09-17T09:18:23.527Z,3.67
2018-09-17T09:22:26.854Z,2.77
2018-09-17T09:26:30.175Z,5.73
2018-09-17T09:30:33.486Z,2.90
2018-09-17T09:34:36.811Z,2.90
2018-09-17T09:38:40.168Z,2.90
2018-09-17T09:42:44.338Z,2.87
2018-09-17T09:46:47.691Z,2.33
2018-09-17T09:50:51.128Z,2.50
2018-09-17T09:54:54.474Z,2.13
2018-09-17T09:58:57.812Z,2.30
2018-09-17T10:03:01.714Z,2.40
2018-09-17T10:07:05.116Z,2.13
2018-09-17T10:11:13.895Z,2.57
2018-09-17T10:15:21.474Z,2.20
2018-09-17T10:19:25.584Z,3.10
2018-09-17T10:23:28.912Z,2.40
2018-09-17T10:27:32.251Z,2.27
2018-09-17T10:31:35.583Z,2.60
2018-09-17T10:35:38.907Z,2.50
2018-09-17T10:39:42.410Z,3.80
2018-09-17T10:43:45.765Z,2.70
2018-09-17T10:47:49.100Z,2.17
2018-09-17T10:51:52.463Z,2.03
2018-09-17T10:55:55.793Z,2.20
2018-09-17T10:59:59.106Z,2.50
2018-09-17T11:04:02.460Z,2.80
2018-09-17T11:08:05.831Z,2.83
2018-09-17T11:12:09.164Z,2.60
2018-09-17T11:16:12.503Z,3.33
2018-09-17T11:20:15.837Z,2.50
2018-09-17T11:24:18.955Z,2.70
2018-09-17T11:28:22.264Z,2.70
2018-09-17T11:32:25.680Z,2.40
2018-09-17T11:36:29.015Z,2.67
2018-09-17T11:40:32.434Z,2.77
2018-09-17T11:44:35.782Z,2.12
2018-09-17T11:48:39.093Z,2.80
2018-09-17T11:52:42.415Z,2.47
2018-09-17T11:56:45.792Z,3.27
2018-09-17T12:00:54.562Z,2.87
2018-09-17T12:05:03.109Z,2.75
2018-09-17T12:09:08.400Z,2.67
2018-09-17T12:13:11.767Z,2.87
2018-09-17T12:17:15.122Z,2.75
2018-09-17T12:21:18.498Z,2.67
2018-09-17T12:25:21.820Z,2.83
2018-09-17T12:29:25.150Z,2.87
2018-09-17T12:33:28.525Z,2.67
2018-09-17T12:37:31.846Z,2.75
2018-09-17T12:41:35.230Z,2.70
2018-09-17T12:45:38.586Z,2.77
2018-09-17T12:49:41.922Z,2.62
2018-09-17T12:53:45.269Z,2.45
2018-09-17T12:57:48.612Z,2.62
2018-09-17T13:01:51.949Z,2.45
2018-09-17T13:05:55.299Z,2.47
2018-09-17T13:09:58.656Z,2.95
2018-09-17T13:14:01.992Z,2.58
2018-09-17T13:18:05.461Z,2.37
2018-09-17T13:22:08.807Z,2.50
2018-09-17T13:26:12.140Z,2.47
2018-09-17T13:30:15.579Z,2.72
2018-09-17T13:34:18.919Z,2.65
2018-09-17T13:38:22.256Z,2.93
2018-09-17T13:42:25.630Z,2.45
2018-09-17T13:46:28.981Z,2.70
2018-09-17T13:50:32.339Z,2.80
2018-09-17T13:54:35.701Z,2.60
2018-09-17T13:58:39.036Z,3.15
2018-09-17T14:02:42.393Z,2.63
2018-09-17T14:06:45.751Z,2.30
2018-09-17T14:10:49.364Z,2.50
2018-09-17T14:14:52.735Z,2.52
2018-09-17T14:18:56.096Z,2.50
2018-09-17T14:22:59.498Z,3.10
2018-09-17T14:27:02.975Z,2.87
2018-09-17T14:31:06.492Z,2.35
2018-09-17T14:35:10.041Z,2.87
2018-09-17T14:39:13.350Z,2.83
2018-09-17T14:43:16.717Z,2.92
2018-09-17T14:47:20.084Z,3.60
2018-09-17T14:51:23.450Z,2.90
2018-09-17T14:55:26.890Z,3.02
2018-09-17T14:59:30.226Z,3.25
2018-09-17T15:03:33.602Z,2.95
2018-09-17T15:07:37.052Z,3.77
2018-09-17T15:11:40.282Z,3.55
2018-09-17T15:15:45.768Z,3.47
2018-09-17T15:19:49.211Z,3.35
2018-09-17T15:23:52.626Z,3.27
2018-09-17T15:27:55.994Z,3.47
2018-09-17T15:31:59.335Z,3.60
2018-09-17T15:36:02.873Z,4.25
2018-09-17T15:40:07.255Z,3.62
2018-09-17T15:44:11.151Z,3.87
2018-09-17T15:48:14.439Z,4.60
2018-09-17T15:52:17.914Z,3.17
2018-09-17T15:56:21.267Z,3.87
2018-09-17T16:00:24.652Z,3.90
2018-09-17T16:04:28.007Z,3.70
2018-09-17T16:08:31.480Z,3.83
2018-09-17T16:12:34.850Z,4.10
2018-09-17T16:16:38.163Z,3.33
2018-09-17T16:20:41.533Z,3.83
2018-09-17T16:24:44.975Z,3.62
2018-09-17T16:28:48.386Z,3.20
2018-09-17T16:32:51.715Z,3.17
2018-09-17T16:36:55.036Z,3.20
2018-09-17T16:40:58.378Z,3.25
2018-09-17T16:45:01.744Z,3.17
2018-09-17T16:49:05.125Z,3.10
2018-09-17T16:53:08.478Z,2.72
2018-09-17T16:57:11.797Z,3.00
2018-09-17T17:01:15.139Z,3.00
2018-09-17T17:05:18.644Z,2.98
2018-09-17T17:09:21.943Z,3.17
2018-09-17T17:13:25.292Z,3.20
2018-09-17T17:17:28.602Z,3.20
2018-09-17T17:21:31.939Z,3.37
2018-09-17T17:25:41.874Z,3.10
2018-09-17T17:29:45.195Z,2.80
2018-09-17T17:33:48.603Z,2.90
2018-09-17T17:37:51.875Z,3.30
2018-09-17T17:41:55.269Z,2.93
2018-09-17T17:45:58.720Z,2.23
2018-09-17T17:50:02.129Z,2.90
2018-09-17T17:54:05.537Z,2.87
2018-09-17T17:58:11.884Z,2.93
2018-09-17T18:02:15.308Z,3.20
2018-09-17T18:06:18.692Z,2.93
2018-09-17T18:10:22.120Z,2.97
2018-09-17T18:14:25.480Z,2.40
2018-09-17T18:18:28.892Z,2.80
2018-09-17T18:22:32.328Z,2.90
2018-09-17T18:26:35.748Z,2.83
2018-09-17T18:30:39.173Z,2.83
2018-09-17T18:34:44.203Z,3.30
2018-09-17T18:38:47.657Z,3.43
2018-09-17T18:42:51.097Z,3.00
2018-09-17T18:46:54.737Z,3.40
2018-09-17T18:50:58.255Z,3.20
2018-09-17T18:55:01.680Z,3.20
2018-09-17T18:59:05.134Z,3.10
2018-09-17T19:03:08.638Z,2.80
2018-09-17T19:07:12.024Z,3.20
2018-09-17T19:11:15.459Z,3.27
2018-09-17T19:15:24.265Z,3.13
2018-09-17T19:19:27.721Z,2.73
2018-09-17T19:23:36.505Z,2.77
2018-09-17T19:27:45.166Z,3.20
2018-09-17T19:31:48.906Z,3.70
2018-09-17T19:35:52.309Z,3.03
2018-09-17T19:40:16.933Z,3.47
2018-09-17T19:44:20.266Z,2.93
2018-09-17T19:48:24.310Z,4.00
2018-09-17T19:52:27.810Z,4.50
2018-09-17T19:56:31.317Z,4.00
2018-09-17T20:00:34.791Z,3.70
2018-09-17T20:04:43.470Z,3.40
2018-09-17T20:08:46.847Z,4.10
2018-09-17T20:12:50.222Z,4.10
2018-09-17T20:16:53.567Z,3.97
2018-09-17T20:20:56.987Z,5.30
2018-09-17T20:25:07.812Z,4.53
2018-09-17T20:29:11.187Z,4.40
2018-09-17T20:33:14.565Z,3.53
2018-09-17T20:37:17.963Z,6.90
2018-09-17T20:41:21.379Z,7.17
2018-09-17T20:45:24.751Z,8.27
2018-09-17T20:49:28.122Z,8.60
2018-09-17T20:53:31.483Z,7.83
2018-09-17T20:57:35.000Z,8.03
2018-09-17T21:01:38.386Z,9.30
2018-09-17T21:05:41.759Z,10.33
2018-09-17T21:09:45.107Z,9.73
2018-09-17T21:13:48.468Z,5.50
2018-09-17T21:17:51.839Z,4.63
2018-09-17T21:21:55.344Z,4.77
2018-09-17T21:25:58.976Z,4.67
2018-09-17T21:30:02.451Z,4.63
2018-09-17T21:34:06.091Z,3.53
2018-09-17T21:38:09.492Z,4.03
2018-09-17T21:42:12.902Z,3.47
2018-09-17T21:46:16.587Z,3.33
2018-09-17T21:50:22.907Z,3.53
2018-09-17T21:54:26.232Z,3.80
2018-09-17T21:58:29.560Z,3.70
2018-09-17T22:02:32.970Z,3.60
2018-09-17T22:06:36.484Z,3.90
2018-09-17T22:10:39.955Z,3.90
2018-09-17T22:14:43.300Z,3.67
2018-09-17T22:18:46.687Z,4.30
2018-09-17T22:22:50.057Z,3.37
2018-09-17T22:26:53.364Z,4.33
2018-09-17T22:30:56.673Z,3.77
2018-09-17T22:35:00.016Z,4.47
2018-09-17T22:39:04.631Z,4.00
2018-09-17T22:43:07.963Z,3.60
2018-09-17T22:47:11.316Z,3.70
2018-09-17T22:51:14.694Z,3.77
2018-09-17T22:55:18.010Z,3.83
2018-09-17T22:59:21.392Z,4.03
2018-09-17T23:03:24.711Z,4.13
2018-09-17T23:07:28.039Z,3.80
2018-09-17T23:11:31.390Z,4.17
2018-09-17T23:15:34.747Z,3.60
2018-09-17T23:19:38.071Z,3.67
2018-09-17T23:23:41.441Z,3.50
2018-09-17T23:27:44.750Z,3.33
2018-09-17T23:31:48.107Z,3.67
2018-09-17T23:35:51.436Z,3.60
2018-09-17T23:39:54.759Z,3.87
2018-09-17T23:43:58.091Z,4.20
2018-09-17T23:48:01.449Z,4.63
2018-09-17T23:52:04.792Z,3.93
2018-09-17T23:56:08.147Z,3.90
